sensor_id;sensor_type;location;lat;lon;timestamp;temperature;humidity
27978;DHT22;15314;49.248;6.968;2023-05-10T00:00:31;14.50;99.90
27978;DHT22;15314;49.248;6.968;2023-05-10T00:01:31;14.50;99.90
27978;DHT22;15314;49.248;6.968;2023-05-10T00:02:32;14.50;99.90
27978;DHT22;15314;49.248;6.968;2023-05-10T00:03:33;14.40;99.90
27978;DHT22;15314;49.248;6.968;2023-05-10T00:04:33;14.40;99.90
27978;DHT22;15314;49.248;6.968;2023-05-10T00:05:34;14.40;99.90
27978;DHT22;15314;49.248;6.968;2023-05-10T00:06:35;14.50;99.90
27978;DHT22;15314;49.248;6.968;2023-05-10T00:07:35;14.50;99.90
27978;DHT22;15314;49.248;6.968;2023-05-10T00:08:36;14.60;99.90
27978;DHT22;15314;49.248;6.968;2023-05-10T00:09:37;14.60;99.90
27978;DHT22;15314;49.248;6.968;2023-05-10T00:10:37;14.70;99.90
27978;DHT22;15314;49.248;6.968;2023-05-10T00:11:38;14.70;99.90
27978;DHT22;15314;49.248;6.968;2023-05-10T00:12:39;14.70;99.90
27978;DHT22;15314;49.248;6.968;2023-05-10T00:13:40;14.70;99.90
27978;DHT22;15314;49.248;6.968;2023-05-10T00:14:40;14.70;99.90
27978;DHT22;15314;49.248;6.968;2023-05-10T00:15:41;14.80;99.90
27978;DHT22;15314;49.248;6.968;2023-05-10T00:16:42;14.70;99.90
27978;DHT22;15314;49.248;6.968;2023-05-10T00:17:42;14.70;99.90
27978;DHT22;15314;49.248;6.968;2023-05-10T00:18:43;14.70;99.90
27978;DHT22;15314;49.248;6.968;2023-05-10T00:19:44;14.60;99.90
27978;DHT22;15314;49.248;6.968;2023-05-10T00:20:44;14.60;99.90
27978;DHT22;15314;49.248;6.968;2023-05-10T00:21:46;14.50;99.90
27978;DHT22;15314;49.248;6.968;2023-05-10T00:22:47;14.40;99.90
27978;DHT22;15314;49.248;6.968;2023-05-10T00:23:47;14.40;99.90
27978;DHT22;15314;49.248;6.968;2023-05-10T00:24:48;14.50;99.90
27978;DHT22;15314;49.248;6.968;2023-05-10T00:25:48;14.50;99.90
27978;DHT22;15314;49.248;6.968;2023-05-10T00:26:49;14.40;99.90
27978;DHT22;15314;49.248;6.968;2023-05-10T00:27:50;14.40;99.90
27978;DHT22;15314;49.248;6.968;2023-05-10T00:28:51;14.40;99.90
27978;DHT22;15314;49.248;6.968;2023-05-10T00:29:52;14.40;99.90
27978;DHT22;15314;49.248;6.968;2023-05-10T00:30:53;14.40;99.90
27978;DHT22;15314;49.248;6.968;2023-05-10T00:31:53;14.30;99.90
27978;DHT22;15314;49.248;6.968;2023-05-10T00:32:54;14.30;99.90
27978;DHT22;15314;49.248;6.968;2023-05-10T00:33:55;14.30;99.90
27978;DHT22;15314;49.248;6.968;2023-05-10T00:34:56;14.40;99.90
27978;DHT22;15314;49.248;6.968;2023-05-10T00:35:56;14.40;99.90
27978;DHT22;15314;49.248;6.968;2023-05-10T00:36:57;14.40;99.90
27978;DHT22;15314;49.248;6.968;2023-05-10T00:37:58;14.40;99.90
27978;DHT22;15314;49.248;6.968;2023-05-10T00:38:59;14.30;99.90
27978;DHT22;15314;49.248;6.968;2023-05-10T00:39:59;14.40;99.90
27978;DHT22;15314;49.248;6.968;2023-05-10T00:41:00;14.30;99.90
27978;DHT22;15314;49.248;6.968;2023-05-10T00:42:01;14.40;99.90
27978;DHT22;15314;49.248;6.968;2023-05-10T00:43:02;14.40;99.90
27978;DHT22;15314;49.248;6.968;2023-05-10T00:44:03;14.40;99.90
27978;DHT22;15314;49.248;6.968;2023-05-10T00:45:05;14.40;99.90
27978;DHT22;15314;49.248;6.968;2023-05-10T00:46:06;14.50;99.90
27978;DHT22;15314;49.248;6.968;2023-05-10T00:47:07;14.40;99.90
27978;DHT22;15314;49.248;6.968;2023-05-10T00:48:08;14.30;99.90
27978;DHT22;15314;49.248;6.968;2023-05-10T00:49:09;14.30;99.90
27978;DHT22;15314;49.248;6.968;2023-05-10T00:50:10;14.20;99.90
27978;DHT22;15314;49.248;6.968;2023-05-10T00:51:10;14.20;99.90
27978;DHT22;15314;49.248;6.968;2023-05-10T00:52:11;14.10;99.90
27978;DHT22;15314;49.248;6.968;2023-05-10T00:53:12;14.20;99.90
27978;DHT22;15314;49.248;6.968;2023-05-10T00:54:14;14.20;99.90
27978;DHT22;15314;49.248;6.968;2023-05-10T00:55:15;14.20;99.90
27978;DHT22;15314;49.248;6.968;2023-05-10T00:56:16;14.20;99.90
27978;DHT22;15314;49.248;6.968;2023-05-10T00:57:17;14.20;99.90
27978;DHT22;15314;49.248;6.968;2023-05-10T00:58:18;14.20;99.90
27978;DHT22;15314;49.248;6.968;2023-05-10T00:59:18;14.10;99.90
27978;DHT22;15314;49.248;6.968;2023-05-10T01:00:19;14.10;99.90
27978;DHT22;15314;49.248;6.968;2023-05-10T01:01:20;14.00;99.90
27978;DHT22;15314;49.248;6.968;2023-05-10T01:02:21;14.00;99.90
27978;DHT22;15314;49.248;6.968;2023-05-10T01:03:22;14.10;99.90
27978;DHT22;15314;49.248;6.968;2023-05-10T01:04:22;14.00;99.90
27978;DHT22;15314;49.248;6.968;2023-05-10T01:05:25;14.10;99.90
27978;DHT22;15314;49.248;6.968;2023-05-10T01:06:27;14.20;99.90
27978;DHT22;15314;49.248;6.968;2023-05-10T01:07:29;14.20;99.90
27978;DHT22;15314;49.248;6.968;2023-05-10T01:08:29;14.30;99.90
27978;DHT22;15314;49.248;6.968;2023-05-10T01:09:30;14.30;99.90
27978;DHT22;15314;49.248;6.968;2023-05-10T01:10:32;14.30;99.90
27978;DHT22;15314;49.248;6.968;2023-05-10T01:11:37;14.30;99.90
27978;DHT22;15314;49.248;6.968;2023-05-10T01:12:41;14.30;99.90
27978;DHT22;15314;49.248;6.968;2023-05-10T01:13:43;14.30;99.90
27978;DHT22;15314;49.248;6.968;2023-05-10T01:14:47;14.20;99.90
27978;DHT22;15314;49.248;6.968;2023-05-10T01:15:48;14.20;99.90
27978;DHT22;15314;49.248;6.968;2023-05-10T01:16:49;14.20;99.90
27978;DHT22;15314;49.248;6.968;2023-05-10T01:17:51;14.10;99.90
27978;DHT22;15314;49.248;6.968;2023-05-10T01:18:52;14.10;99.90
27978;DHT22;15314;49.248;6.968;2023-05-10T01:19:53;14.00;99.90
27978;DHT22;15314;49.248;6.968;2023-05-10T01:21:14;14.10;99.90
27978;DHT22;15314;49.248;6.968;2023-05-10T01:23:57;14.00;99.90
27978;DHT22;15314;49.248;6.968;2023-05-10T01:25:31;14.00;99.90
27978;DHT22;15314;49.248;6.968;2023-05-10T01:27:47;13.90;99.90
27978;DHT22;15314;49.248;6.968;2023-05-10T01:30:34;13.90;99.90
27978;DHT22;15314;49.248;6.968;2023-05-10T01:33:18;13.90;99.90
27978;DHT22;15314;49.248;6.968;2023-05-10T01:34:25;13.90;99.90
27978;DHT22;15314;49.248;6.968;2023-05-10T01:35:42;13.90;99.90
27978;DHT22;15314;49.248;6.968;2023-05-10T01:36:52;13.90;99.90
27978;DHT22;15314;49.248;6.968;2023-05-10T01:39:37;13.90;99.90
27978;DHT22;15314;49.248;6.968;2023-05-10T01:41:17;13.90;99.90
27978;DHT22;15314;49.248;6.968;2023-05-10T01:42:25;13.90;99.90
27978;DHT22;15314;49.248;6.968;2023-05-10T01:43:31;14.00;99.90
27978;DHT22;15314;49.248;6.968;2023-05-10T01:45:00;14.00;99.90
27978;DHT22;15314;49.248;6.968;2023-05-10T01:46:07;14.10;99.90
27978;DHT22;15314;49.248;6.968;2023-05-10T01:47:17;14.10;99.90
27978;DHT22;15314;49.248;6.968;2023-05-10T01:48:19;14.20;99.90
27978;DHT22;15314;49.248;6.968;2023-05-10T01:49:27;14.20;99.90
27978;DHT22;15314;49.248;6.968;2023-05-10T01:50:30;14.20;99.90
27978;DHT22;15314;49.248;6.968;2023-05-10T01:51:49;14.20;99.90
27978;DHT22;15314;49.248;6.968;2023-05-10T01:52:54;14.20;99.90
27978;DHT22;15314;49.248;6.968;2023-05-10T01:54:00;14.20;99.90
27978;DHT22;15314;49.248;6.968;2023-05-10T01:55:14;14.20;99.90
27978;DHT22;15314;49.248;6.968;2023-05-10T01:56:17;14.20;99.90
27978;DHT22;15314;49.248;6.968;2023-05-10T01:57:20;14.10;99.90
27978;DHT22;15314;49.248;6.968;2023-05-10T01:58:29;14.20;99.90
27978;DHT22;15314;49.248;6.968;2023-05-10T01:59:36;14.20;99.90
27978;DHT22;15314;49.248;6.968;2023-05-10T02:00:43;14.20;99.90
27978;DHT22;15314;49.248;6.968;2023-05-10T02:01:45;14.20;99.90
27978;DHT22;15314;49.248;6.968;2023-05-10T02:02:48;14.20;99.90
27978;DHT22;15314;49.248;6.968;2023-05-10T02:03:50;14.20;99.90
27978;DHT22;15314;49.248;6.968;2023-05-10T02:04:53;14.20;99.90
27978;DHT22;15314;49.248;6.968;2023-05-10T02:05:56;14.10;99.90
27978;DHT22;15314;49.248;6.968;2023-05-10T02:06:57;14.20;99.90
27978;DHT22;15314;49.248;6.968;2023-05-10T02:07:59;14.10;99.90
27978;DHT22;15314;49.248;6.968;2023-05-10T02:09:01;14.10;99.90
27978;DHT22;15314;49.248;6.968;2023-05-10T02:10:06;14.10;99.90
27978;DHT22;15314;49.248;6.968;2023-05-10T02:11:09;14.00;99.90
27978;DHT22;15314;49.248;6.968;2023-05-10T02:12:13;14.10;99.90
27978;DHT22;15314;49.248;6.968;2023-05-10T02:13:16;14.10;99.90
27978;DHT22;15314;49.248;6.968;2023-05-10T02:14:18;14.00;99.90
27978;DHT22;15314;49.248;6.968;2023-05-10T02:15:22;14.00;99.90
27978;DHT22;15314;49.248;6.968;2023-05-10T02:16:25;13.90;99.90
27978;DHT22;15314;49.248;6.968;2023-05-10T02:17:27;13.90;99.90
27978;DHT22;15314;49.248;6.968;2023-05-10T02:18:29;14.00;99.90
27978;DHT22;15314;49.248;6.968;2023-05-10T02:19:32;14.00;99.90
27978;DHT22;15314;49.248;6.968;2023-05-10T02:20:33;14.00;99.90
27978;DHT22;15314;49.248;6.968;2023-05-10T02:21:35;14.00;99.90
27978;DHT22;15314;49.248;6.968;2023-05-10T02:22:39;13.90;99.90
27978;DHT22;15314;49.248;6.968;2023-05-10T02:23:40;14.00;99.90
27978;DHT22;15314;49.248;6.968;2023-05-10T02:24:41;14.10;99.90
27978;DHT22;15314;49.248;6.968;2023-05-10T02:25:44;14.10;99.90
27978;DHT22;15314;49.248;6.968;2023-05-10T02:26:45;14.10;99.90
27978;DHT22;15314;49.248;6.968;2023-05-10T02:27:48;14.10;99.90
27978;DHT22;15314;49.248;6.968;2023-05-10T02:28:49;14.10;99.90
27978;DHT22;15314;49.248;6.968;2023-05-10T02:29:51;14.20;99.90
27978;DHT22;15314;49.248;6.968;2023-05-10T02:30:53;14.20;99.90
27978;DHT22;15314;49.248;6.968;2023-05-10T02:31:54;14.20;99.90
27978;DHT22;15314;49.248;6.968;2023-05-10T02:32:56;14.20;99.90
27978;DHT22;15314;49.248;6.968;2023-05-10T02:33:59;14.20;99.90
27978;DHT22;15314;49.248;6.968;2023-05-10T02:35:02;14.20;99.90
27978;DHT22;15314;49.248;6.968;2023-05-10T02:36:03;14.20;99.90
27978;DHT22;15314;49.248;6.968;2023-05-10T02:37:05;14.20;99.90
27978;DHT22;15314;49.248;6.968;2023-05-10T02:38:07;14.20;99.90
27978;DHT22;15314;49.248;6.968;2023-05-10T02:39:10;14.20;99.90
27978;DHT22;15314;49.248;6.968;2023-05-10T02:40:13;14.10;99.90
27978;DHT22;15314;49.248;6.968;2023-05-10T02:41:15;14.20;99.90
27978;DHT22;15314;49.248;6.968;2023-05-10T02:42:18;14.20;99.90
27978;DHT22;15314;49.248;6.968;2023-05-10T02:43:21;14.20;99.90
27978;DHT22;15314;49.248;6.968;2023-05-10T02:44:23;14.30;99.90
27978;DHT22;15314;49.248;6.968;2023-05-10T02:45:30;14.20;99.90
27978;DHT22;15314;49.248;6.968;2023-05-10T02:46:31;14.20;99.90
27978;DHT22;15314;49.248;6.968;2023-05-10T02:47:32;14.20;99.90
27978;DHT22;15314;49.248;6.968;2023-05-10T02:48:33;14.10;99.90
27978;DHT22;15314;49.248;6.968;2023-05-10T02:49:34;14.10;99.90
27978;DHT22;15314;49.248;6.968;2023-05-10T02:50:35;14.10;99.90
27978;DHT22;15314;49.248;6.968;2023-05-10T02:51:44;14.10;99.90
27978;DHT22;15314;49.248;6.968;2023-05-10T02:52:47;14.10;99.90
27978;DHT22;15314;49.248;6.968;2023-05-10T02:53:51;14.00;99.90
27978;DHT22;15314;49.248;6.968;2023-05-10T02:55:01;14.00;99.90
27978;DHT22;15314;49.248;6.968;2023-05-10T02:56:13;14.00;99.90
27978;DHT22;15314;49.248;6.968;2023-05-10T02:57:16;14.00;99.90
27978;DHT22;15314;49.248;6.968;2023-05-10T02:58:22;14.00;99.90
27978;DHT22;15314;49.248;6.968;2023-05-10T02:59:32;14.00;99.90
27978;DHT22;15314;49.248;6.968;2023-05-10T03:00:33;14.00;99.90
27978;DHT22;15314;49.248;6.968;2023-05-10T03:01:34;14.00;99.90
27978;DHT22;15314;49.248;6.968;2023-05-10T03:02:35;13.90;99.90
27978;DHT22;15314;49.248;6.968;2023-05-10T03:03:36;14.00;99.90
27978;DHT22;15314;49.248;6.968;2023-05-10T03:04:37;14.00;99.90
27978;DHT22;15314;49.248;6.968;2023-05-10T03:05:37;14.00;99.90
27978;DHT22;15314;49.248;6.968;2023-05-10T03:06:38;14.00;99.90
27978;DHT22;15314;49.248;6.968;2023-05-10T03:07:39;14.00;99.90
27978;DHT22;15314;49.248;6.968;2023-05-10T03:08:40;14.00;99.90
27978;DHT22;15314;49.248;6.968;2023-05-10T03:09:40;14.10;99.90
27978;DHT22;15314;49.248;6.968;2023-05-10T03:10:47;14.10;99.90
27978;DHT22;15314;49.248;6.968;2023-05-10T03:12:04;14.10;99.90
27978;DHT22;15314;49.248;6.968;2023-05-10T03:16:03;14.30;99.90
27978;DHT22;15314;49.248;6.968;2023-05-10T03:17:19;14.30;99.90
27978;DHT22;15314;49.248;6.968;2023-05-10T03:18:28;14.30;99.90
27978;DHT22;15314;49.248;6.968;2023-05-10T03:20:48;14.30;99.90
27978;DHT22;15314;49.248;6.968;2023-05-10T03:21:52;14.30;99.90
27978;DHT22;15314;49.248;6.968;2023-05-10T03:23:02;14.30;99.90
27978;DHT22;15314;49.248;6.968;2023-05-10T03:24:09;14.20;99.90
27978;DHT22;15314;49.248;6.968;2023-05-10T03:25:12;14.20;99.90
27978;DHT22;15314;49.248;6.968;2023-05-10T03:26:24;14.20;99.90
27978;DHT22;15314;49.248;6.968;2023-05-10T03:27:27;14.10;99.90
27978;DHT22;15314;49.248;6.968;2023-05-10T03:28:28;14.10;99.90
27978;DHT22;15314;49.248;6.968;2023-05-10T03:29:31;14.00;99.90
27978;DHT22;15314;49.248;6.968;2023-05-10T03:30:33;14.10;99.90
27978;DHT22;15314;49.248;6.968;2023-05-10T03:31:34;14.00;99.90
27978;DHT22;15314;49.248;6.968;2023-05-10T03:32:34;14.00;99.90
27978;DHT22;15314;49.248;6.968;2023-05-10T03:33:35;14.10;99.90
27978;DHT22;15314;49.248;6.968;2023-05-10T03:34:41;14.10;99.90
27978;DHT22;15314;49.248;6.968;2023-05-10T03:35:43;14.20;99.90
27978;DHT22;15314;49.248;6.968;2023-05-10T03:36:46;14.20;99.90
27978;DHT22;15314;49.248;6.968;2023-05-10T03:37:46;14.20;99.90
27978;DHT22;15314;49.248;6.968;2023-05-10T03:38:47;14.30;99.90
27978;DHT22;15314;49.248;6.968;2023-05-10T03:39:48;14.20;99.90
27978;DHT22;15314;49.248;6.968;2023-05-10T03:40:49;14.20;99.90
27978;DHT22;15314;49.248;6.968;2023-05-10T03:41:49;14.10;99.90
27978;DHT22;15314;49.248;6.968;2023-05-10T03:42:50;14.10;99.90
27978;DHT22;15314;49.248;6.968;2023-05-10T03:43:51;14.00;99.90
27978;DHT22;15314;49.248;6.968;2023-05-10T03:44:51;14.10;99.90
27978;DHT22;15314;49.248;6.968;2023-05-10T03:45:52;13.90;99.90
27978;DHT22;15314;49.248;6.968;2023-05-10T03:46:53;13.90;99.90
27978;DHT22;15314;49.248;6.968;2023-05-10T03:47:53;13.90;99.90
27978;DHT22;15314;49.248;6.968;2023-05-10T03:48:54;13.90;99.90
27978;DHT22;15314;49.248;6.968;2023-05-10T03:49:55;13.90;99.90
27978;DHT22;15314;49.248;6.968;2023-05-10T03:50:56;13.80;99.90
27978;DHT22;15314;49.248;6.968;2023-05-10T03:51:56;13.80;99.90
27978;DHT22;15314;49.248;6.968;2023-05-10T03:52:57;13.80;99.90
27978;DHT22;15314;49.248;6.968;2023-05-10T03:53:57;13.80;99.90
27978;DHT22;15314;49.248;6.968;2023-05-10T03:54:58;13.80;99.90
27978;DHT22;15314;49.248;6.968;2023-05-10T03:55:59;13.80;99.90
27978;DHT22;15314;49.248;6.968;2023-05-10T03:56:59;13.80;99.90
27978;DHT22;15314;49.248;6.968;2023-05-10T03:58:01;13.80;99.90
27978;DHT22;15314;49.248;6.968;2023-05-10T03:59:02;13.70;99.90
27978;DHT22;15314;49.248;6.968;2023-05-10T04:00:08;13.70;99.90
27978;DHT22;15314;49.248;6.968;2023-05-10T04:01:08;13.60;99.90
27978;DHT22;15314;49.248;6.968;2023-05-10T04:02:10;13.70;99.90
27978;DHT22;15314;49.248;6.968;2023-05-10T04:03:11;13.70;99.90
27978;DHT22;15314;49.248;6.968;2023-05-10T04:04:12;13.60;99.90
27978;DHT22;15314;49.248;6.968;2023-05-10T04:05:14;13.60;99.90
27978;DHT22;15314;49.248;6.968;2023-05-10T04:06:15;13.60;99.90
27978;DHT22;15314;49.248;6.968;2023-05-10T04:07:15;13.50;99.90
27978;DHT22;15314;49.248;6.968;2023-05-10T04:08:16;13.50;99.90
27978;DHT22;15314;49.248;6.968;2023-05-10T04:09:17;13.50;99.90
27978;DHT22;15314;49.248;6.968;2023-05-10T04:10:17;13.50;99.90
27978;DHT22;15314;49.248;6.968;2023-05-10T04:11:18;13.60;99.90
27978;DHT22;15314;49.248;6.968;2023-05-10T04:12:19;13.60;99.90
27978;DHT22;15314;49.248;6.968;2023-05-10T04:13:20;13.70;99.90
27978;DHT22;15314;49.248;6.968;2023-05-10T04:14:21;13.80;99.90
27978;DHT22;15314;49.248;6.968;2023-05-10T04:15:22;13.80;99.90
27978;DHT22;15314;49.248;6.968;2023-05-10T04:16:22;13.80;99.90
27978;DHT22;15314;49.248;6.968;2023-05-10T04:17:23;13.70;99.90
27978;DHT22;15314;49.248;6.968;2023-05-10T04:18:23;13.80;99.90
27978;DHT22;15314;49.248;6.968;2023-05-10T04:19:28;13.90;99.90
27978;DHT22;15314;49.248;6.968;2023-05-10T04:20:29;13.90;99.90
27978;DHT22;15314;49.248;6.968;2023-05-10T04:21:29;14.00;99.90
27978;DHT22;15314;49.248;6.968;2023-05-10T04:22:32;14.10;99.90
27978;DHT22;15314;49.248;6.968;2023-05-10T04:23:32;14.10;99.90
27978;DHT22;15314;49.248;6.968;2023-05-10T04:24:33;14.00;99.90
27978;DHT22;15314;49.248;6.968;2023-05-10T04:25:34;14.10;99.90
27978;DHT22;15314;49.248;6.968;2023-05-10T04:26:35;14.10;99.90
27978;DHT22;15314;49.248;6.968;2023-05-10T04:27:36;14.10;99.90
27978;DHT22;15314;49.248;6.968;2023-05-10T04:28:37;14.10;99.90
27978;DHT22;15314;49.248;6.968;2023-05-10T04:29:38;14.00;99.90
27978;DHT22;15314;49.248;6.968;2023-05-10T04:30:39;14.10;99.90
27978;DHT22;15314;49.248;6.968;2023-05-10T04:31:40;14.10;99.90
27978;DHT22;15314;49.248;6.968;2023-05-10T04:32:41;14.10;99.90
27978;DHT22;15314;49.248;6.968;2023-05-10T04:33:41;14.20;99.90
27978;DHT22;15314;49.248;6.968;2023-05-10T04:34:43;14.10;99.90
27978;DHT22;15314;49.248;6.968;2023-05-10T04:35:43;14.10;99.90
27978;DHT22;15314;49.248;6.968;2023-05-10T04:36:45;14.10;99.90
27978;DHT22;15314;49.248;6.968;2023-05-10T04:37:46;14.10;99.90
27978;DHT22;15314;49.248;6.968;2023-05-10T04:38:46;14.20;99.90
27978;DHT22;15314;49.248;6.968;2023-05-10T04:39:47;14.20;99.90
27978;DHT22;15314;49.248;6.968;2023-05-10T04:40:48;14.30;99.90
27978;DHT22;15314;49.248;6.968;2023-05-10T04:41:48;14.30;99.90
27978;DHT22;15314;49.248;6.968;2023-05-10T04:42:49;14.30;99.90
27978;DHT22;15314;49.248;6.968;2023-05-10T04:43:49;14.30;99.90
27978;DHT22;15314;49.248;6.968;2023-05-10T04:44:50;14.30;99.90
27978;DHT22;15314;49.248;6.968;2023-05-10T04:45:52;14.30;99.90
27978;DHT22;15314;49.248;6.968;2023-05-10T04:46:52;14.30;99.90
27978;DHT22;15314;49.248;6.968;2023-05-10T04:47:53;14.30;99.90
27978;DHT22;15314;49.248;6.968;2023-05-10T04:48:54;14.40;99.90
27978;DHT22;15314;49.248;6.968;2023-05-10T04:49:54;14.30;99.90
27978;DHT22;15314;49.248;6.968;2023-05-10T04:50:55;14.30;99.90
27978;DHT22;15314;49.248;6.968;2023-05-10T04:51:56;14.20;99.90
27978;DHT22;15314;49.248;6.968;2023-05-10T04:52:56;14.20;99.90
27978;DHT22;15314;49.248;6.968;2023-05-10T04:53:57;14.30;99.90
27978;DHT22;15314;49.248;6.968;2023-05-10T04:54:58;14.20;99.90
27978;DHT22;15314;49.248;6.968;2023-05-10T04:55:58;14.20;99.90
27978;DHT22;15314;49.248;6.968;2023-05-10T04:56:59;14.20;99.90
27978;DHT22;15314;49.248;6.968;2023-05-10T04:57:59;14.20;99.90
27978;DHT22;15314;49.248;6.968;2023-05-10T04:59:01;14.30;99.90
27978;DHT22;15314;49.248;6.968;2023-05-10T05:00:02;14.20;99.90
27978;DHT22;15314;49.248;6.968;2023-05-10T05:01:06;14.10;99.90
27978;DHT22;15314;49.248;6.968;2023-05-10T05:02:09;14.20;99.90
27978;DHT22;15314;49.248;6.968;2023-05-10T05:03:09;14.20;99.90
27978;DHT22;15314;49.248;6.968;2023-05-10T05:04:10;14.20;99.90
27978;DHT22;15314;49.248;6.968;2023-05-10T05:05:12;14.20;99.90
27978;DHT22;15314;49.248;6.968;2023-05-10T05:06:12;14.10;99.90
27978;DHT22;15314;49.248;6.968;2023-05-10T05:07:13;14.10;99.90
27978;DHT22;15314;49.248;6.968;2023-05-10T05:08:13;14.10;99.90
27978;DHT22;15314;49.248;6.968;2023-05-10T05:09:14;14.20;99.90
27978;DHT22;15314;49.248;6.968;2023-05-10T05:10:15;14.20;99.90
27978;DHT22;15314;49.248;6.968;2023-05-10T05:11:16;14.20;99.90
27978;DHT22;15314;49.248;6.968;2023-05-10T05:12:17;14.20;99.90
27978;DHT22;15314;49.248;6.968;2023-05-10T05:13:17;14.20;99.90
27978;DHT22;15314;49.248;6.968;2023-05-10T05:14:18;14.20;99.90
27978;DHT22;15314;49.248;6.968;2023-05-10T05:15:21;14.10;99.90
27978;DHT22;15314;49.248;6.968;2023-05-10T05:16:21;14.20;99.90
27978;DHT22;15314;49.248;6.968;2023-05-10T05:17:22;14.20;99.90
27978;DHT22;15314;49.248;6.968;2023-05-10T05:18:23;14.20;99.90
27978;DHT22;15314;49.248;6.968;2023-05-10T05:19:23;14.30;99.90
27978;DHT22;15314;49.248;6.968;2023-05-10T05:20:24;14.20;99.90
27978;DHT22;15314;49.248;6.968;2023-05-10T05:21:24;14.10;99.90
27978;DHT22;15314;49.248;6.968;2023-05-10T05:22:27;14.10;99.90
27978;DHT22;15314;49.248;6.968;2023-05-10T05:23:28;14.00;99.90
27978;DHT22;15314;49.248;6.968;2023-05-10T05:24:29;14.10;99.90
27978;DHT22;15314;49.248;6.968;2023-05-10T05:25:29;13.90;99.90
27978;DHT22;15314;49.248;6.968;2023-05-10T05:26:30;13.90;99.90
27978;DHT22;15314;49.248;6.968;2023-05-10T05:27:31;14.00;99.90
27978;DHT22;15314;49.248;6.968;2023-05-10T05:28:32;14.00;99.90
27978;DHT22;15314;49.248;6.968;2023-05-10T05:29:34;14.10;99.90
27978;DHT22;15314;49.248;6.968;2023-05-10T05:30:34;14.10;99.90
27978;DHT22;15314;49.248;6.968;2023-05-10T05:31:35;14.00;99.90
27978;DHT22;15314;49.248;6.968;2023-05-10T05:32:36;14.10;99.90
27978;DHT22;15314;49.248;6.968;2023-05-10T05:33:37;14.10;99.90
27978;DHT22;15314;49.248;6.968;2023-05-10T05:34:37;14.10;99.90
27978;DHT22;15314;49.248;6.968;2023-05-10T05:35:38;14.00;99.90
27978;DHT22;15314;49.248;6.968;2023-05-10T05:36:38;14.10;99.90
27978;DHT22;15314;49.248;6.968;2023-05-10T05:37:39;14.10;99.90
27978;DHT22;15314;49.248;6.968;2023-05-10T05:38:40;14.20;99.90
27978;DHT22;15314;49.248;6.968;2023-05-10T05:39:40;14.20;99.90
27978;DHT22;15314;49.248;6.968;2023-05-10T05:40:41;14.20;99.90
27978;DHT22;15314;49.248;6.968;2023-05-10T05:41:42;14.20;99.90
27978;DHT22;15314;49.248;6.968;2023-05-10T05:42:42;14.20;99.90
27978;DHT22;15314;49.248;6.968;2023-05-10T05:43:43;14.10;99.90
27978;DHT22;15314;49.248;6.968;2023-05-10T05:44:44;14.10;99.90
27978;DHT22;15314;49.248;6.968;2023-05-10T05:45:44;14.20;99.90
27978;DHT22;15314;49.248;6.968;2023-05-10T05:46:45;14.20;99.90
27978;DHT22;15314;49.248;6.968;2023-05-10T05:47:46;14.30;99.90
27978;DHT22;15314;49.248;6.968;2023-05-10T05:48:46;14.40;99.90
27978;DHT22;15314;49.248;6.968;2023-05-10T05:49:47;14.60;99.90
27978;DHT22;15314;49.248;6.968;2023-05-10T05:50:48;14.80;99.90
27978;DHT22;15314;49.248;6.968;2023-05-10T05:51:48;14.90;99.90
27978;DHT22;15314;49.248;6.968;2023-05-10T05:52:50;15.00;99.90
27978;DHT22;15314;49.248;6.968;2023-05-10T05:53:51;15.20;99.90
27978;DHT22;15314;49.248;6.968;2023-05-10T05:54:52;15.30;99.90
27978;DHT22;15314;49.248;6.968;2023-05-10T05:55:57;15.50;99.90
27978;DHT22;15314;49.248;6.968;2023-05-10T05:56:59;15.70;99.90
27978;DHT22;15314;49.248;6.968;2023-05-10T05:57:59;16.20;99.90
27978;DHT22;15314;49.248;6.968;2023-05-10T05:59:00;16.30;99.90
27978;DHT22;15314;49.248;6.968;2023-05-10T06:00:01;16.20;99.90
27978;DHT22;15314;49.248;6.968;2023-05-10T06:01:03;16.30;99.90
27978;DHT22;15314;49.248;6.968;2023-05-10T06:02:03;16.30;99.90
27978;DHT22;15314;49.248;6.968;2023-05-10T06:03:04;16.20;99.90
27978;DHT22;15314;49.248;6.968;2023-05-10T06:04:04;16.10;99.90
27978;DHT22;15314;49.248;6.968;2023-05-10T06:05:06;16.10;99.90
27978;DHT22;15314;49.248;6.968;2023-05-10T06:06:06;16.10;99.90
27978;DHT22;15314;49.248;6.968;2023-05-10T06:07:07;16.10;99.90
27978;DHT22;15314;49.248;6.968;2023-05-10T06:08:08;15.90;99.90
27978;DHT22;15314;49.248;6.968;2023-05-10T06:09:09;15.90;99.90
27978;DHT22;15314;49.248;6.968;2023-05-10T06:10:10;16.00;99.90
27978;DHT22;15314;49.248;6.968;2023-05-10T06:11:10;15.90;99.90
27978;DHT22;15314;49.248;6.968;2023-05-10T06:12:11;15.90;99.90
27978;DHT22;15314;49.248;6.968;2023-05-10T06:13:12;15.50;99.90
27978;DHT22;15314;49.248;6.968;2023-05-10T06:14:12;15.30;99.90
27978;DHT22;15314;49.248;6.968;2023-05-10T06:15:13;15.10;99.90
27978;DHT22;15314;49.248;6.968;2023-05-10T06:16:14;15.10;99.90
27978;DHT22;15314;49.248;6.968;2023-05-10T06:17:14;15.00;99.90
27978;DHT22;15314;49.248;6.968;2023-05-10T06:18:15;14.90;99.90
27978;DHT22;15314;49.248;6.968;2023-05-10T06:19:16;14.90;99.90
27978;DHT22;15314;49.248;6.968;2023-05-10T06:20:17;14.90;99.90
27978;DHT22;15314;49.248;6.968;2023-05-10T06:21:17;15.00;99.90
27978;DHT22;15314;49.248;6.968;2023-05-10T06:22:18;15.00;99.90
27978;DHT22;15314;49.248;6.968;2023-05-10T06:23:19;15.00;99.90
27978;DHT22;15314;49.248;6.968;2023-05-10T06:24:19;15.10;99.90
27978;DHT22;15314;49.248;6.968;2023-05-10T06:25:20;15.10;99.90
27978;DHT22;15314;49.248;6.968;2023-05-10T06:26:21;15.00;99.90
27978;DHT22;15314;49.248;6.968;2023-05-10T06:27:21;15.00;99.90
27978;DHT22;15314;49.248;6.968;2023-05-10T06:28:22;15.10;99.90
27978;DHT22;15314;49.248;6.968;2023-05-10T06:29:23;15.10;99.90
27978;DHT22;15314;49.248;6.968;2023-05-10T06:30:24;15.10;99.90
27978;DHT22;15314;49.248;6.968;2023-05-10T06:31:27;15.10;99.90
27978;DHT22;15314;49.248;6.968;2023-05-10T06:32:28;14.90;99.90
27978;DHT22;15314;49.248;6.968;2023-05-10T06:33:29;14.90;99.90
27978;DHT22;15314;49.248;6.968;2023-05-10T06:34:29;14.80;99.90
27978;DHT22;15314;49.248;6.968;2023-05-10T06:35:30;15.10;99.90
27978;DHT22;15314;49.248;6.968;2023-05-10T06:36:32;15.20;99.90
27978;DHT22;15314;49.248;6.968;2023-05-10T06:37:33;15.40;99.90
27978;DHT22;15314;49.248;6.968;2023-05-10T06:38:34;15.40;99.90
27978;DHT22;15314;49.248;6.968;2023-05-10T06:39:34;15.30;99.90
27978;DHT22;15314;49.248;6.968;2023-05-10T06:40:35;15.30;99.90
27978;DHT22;15314;49.248;6.968;2023-05-10T06:41:36;15.30;99.90
27978;DHT22;15314;49.248;6.968;2023-05-10T06:42:36;15.30;99.90
27978;DHT22;15314;49.248;6.968;2023-05-10T06:43:38;15.20;99.90
27978;DHT22;15314;49.248;6.968;2023-05-10T06:44:41;15.10;99.90